createdAt,value
2019-01-06T00:01:11.003Z,96410.51
2019-01-06T00:04:20.106Z,96421.28
2019-01-06T00:07:28.978Z,96421.28
2019-01-06T00:10:57.189Z,96410.86
2019-01-06T00:14:06.427Z,96410.86
2019-01-06T00:17:34.420Z,96426.66
2019-01-06T00:20:55.847Z,96423.84
2019-01-06T00:24:04.670Z,96423.84
2019-01-06T00:27:13.419Z,96421.47
2019-01-06T00:30:22.102Z,96429.94
2019-01-06T00:33:30.988Z,96427.94
2019-01-06T00:36:39.800Z,96433.92
2019-01-06T00:40:07.491Z,96441.39
2019-01-06T00:43:16.204Z,96441.39
2019-01-06T00:46:25.236Z,96442.78
2019-01-06T00:49:33.794Z,96442.78
2019-01-06T00:53:01.805Z,96443.59
2019-01-06T00:56:24.650Z,96444.70
2019-01-06T00:59:34.127Z,96444.70
2019-01-06T01:02:42.921Z,96455.66
2019-01-06T01:06:10.859Z,96455.09
2019-01-06T01:09:57.880Z,96458.61
2019-01-06T01:12:58.797Z,96458.61
2019-01-06T01:16:36.019Z,96461.17
2019-01-06T01:19:37.670Z,96461.17
2019-01-06T01:23:04.664Z,96459.89
2019-01-06T01:26:25.560Z,96469.18
2019-01-06T01:29:46.028Z,96463.09
2019-01-06T01:32:47.100Z,96463.09
2019-01-06T01:35:56.534Z,96466.94
2019-01-06T01:39:24.918Z,96474.09
2019-01-06T01:42:28.244Z,96474.09
2019-01-06T01:45:37.207Z,96479.92
2019-01-06T01:48:45.654Z,96469.39
2019-01-06T01:52:13.568Z,96481.20
2019-01-06T01:55:41.382Z,96481.20
2019-01-06T01:59:09.050Z,96484.70
2019-01-06T02:02:36.745Z,96484.91
2019-01-06T02:06:04.656Z,96472.92
2019-01-06T02:09:32.631Z,96481.22
2019-01-06T02:12:35.042Z,96481.22
2019-01-06T02:16:02.700Z,96470.71
2019-01-06T02:19:11.524Z,96470.71
2019-01-06T02:22:19.976Z,96469.44
2019-01-06T02:28:51.630Z,96477.91
2019-01-06T02:32:00.078Z,96476.23
2019-01-06T02:35:08.539Z,96485.38
2019-01-06T02:38:36.532Z,96473.73
2019-01-06T02:42:04.933Z,96481.22
2019-01-06T02:45:13.888Z,96481.22
2019-01-06T02:48:22.567Z,96479.22
2019-01-06T02:51:31.028Z,96475.98
2019-01-06T02:54:34.386Z,96474.48
2019-01-06T02:58:02.065Z,96469.43
2019-01-06T03:01:10.646Z,96469.43
2019-01-06T03:04:19.360Z,96469.00
2019-01-06T03:07:28.069Z,96467.12
2019-01-06T03:10:36.785Z,96472.03
2019-01-06T03:14:04.644Z,96465.16
2019-01-06T03:17:32.530Z,96462.06
2019-01-06T03:24:14.237Z,96452.35
2019-01-06T03:27:23.293Z,96450.61
2019-01-06T03:30:24.494Z,96459.03
2019-01-06T03:33:33.212Z,96459.03
2019-01-06T03:36:57.364Z,96445.30
2019-01-06T03:40:25.136Z,96452.35
2019-01-06T03:43:33.945Z,96445.48
2019-01-06T03:47:01.618Z,96445.80
2019-01-06T03:50:29.593Z,96449.40
2019-01-06T03:53:38.970Z,96449.40
2019-01-06T03:56:47.671Z,96442.48
2019-01-06T03:59:56.276Z,96437.41
2019-01-06T04:03:24.418Z,96443.23
2019-01-06T04:06:33.203Z,96443.23
2019-01-06T04:10:01.096Z,96429.57
2019-01-06T04:13:09.628Z,96429.57
2019-01-06T04:16:37.584Z,96440.75
2019-01-06T04:19:46.042Z,96429.04
2019-01-06T04:22:54.937Z,96431.96
2019-01-06T04:26:03.917Z,96429.44
2019-01-06T04:29:12.906Z,96430.75
2019-01-06T04:32:21.678Z,96426.69
2019-01-06T04:35:30.135Z,96419.47
2019-01-06T04:38:36.227Z,96432.16
2019-01-06T04:41:43.437Z,96427.28
2019-01-06T04:45:11.114Z,96430.78
2019-01-06T04:48:19.830Z,96430.78
2019-01-06T04:51:28.267Z,96434.13
2019-01-06T04:54:37.008Z,96443.70
2019-01-06T04:58:04.662Z,96436.98
2019-01-06T05:01:32.338Z,96425.72
2019-01-06T05:04:41.058Z,96425.72
2019-01-06T05:07:50.068Z,96436.80
2019-01-06T05:10:58.510Z,96438.26
2019-01-06T05:14:00.594Z,96430.28
2019-01-06T05:17:09.841Z,96430.17
2019-01-06T05:20:18.554Z,96434.30
2019-01-06T05:23:22.154Z,96432.95
2019-01-06T05:26:31.664Z,96429.00
2019-01-06T05:29:40.158Z,96432.67
2019-01-06T05:32:48.841Z,96430.63
2019-01-06T05:35:57.553Z,96426.47
2019-01-06T05:38:57.429Z,96423.98
2019-01-06T05:42:25.345Z,96447.93
2019-01-06T05:45:33.882Z,96447.93
2019-01-06T05:48:42.638Z,96435.33
2019-01-06T05:51:51.375Z,96440.81
2019-01-06T05:55:19.283Z,96435.80
2019-01-06T05:58:28.560Z,96435.80
2019-01-06T06:01:37.015Z,96449.18
2019-01-06T06:05:04.946Z,96451.38
2019-01-06T06:08:13.675Z,96451.38
2019-01-06T06:11:22.153Z,96457.83
2019-01-06T06:14:31.347Z,96453.27
2019-01-06T06:17:40.095Z,96456.51
2019-01-06T06:20:49.215Z,96451.53
2019-01-06T06:23:57.902Z,96457.86
2019-01-06T06:27:06.939Z,96462.92
2019-01-06T06:30:16.425Z,96467.12
2019-01-06T06:33:25.493Z,96455.93
2019-01-06T06:36:34.291Z,96467.05
2019-01-06T06:39:34.961Z,96466.08
2019-01-06T06:43:02.957Z,96466.08
2019-01-06T06:46:11.650Z,96466.08
2019-01-06T06:49:20.109Z,96472.13
2019-01-06T06:52:29.059Z,96478.89
2019-01-06T06:55:37.827Z,96489.36
2019-01-06T06:58:46.309Z,96481.59
2019-01-06T07:02:33.086Z,96471.06
2019-01-06T07:06:02.728Z,96487.20
2019-01-06T07:09:11.458Z,96487.20
2019-01-06T07:15:47.581Z,96503.25
2019-01-06T07:18:57.347Z,96499.16
2019-01-06T07:22:07.009Z,96504.78
2019-01-06T07:25:15.738Z,96500.44
2019-01-06T07:28:43.661Z,96507.16
2019-01-06T07:31:52.393Z,96513.28
2019-01-06T07:35:14.042Z,96507.23
2019-01-06T07:38:11.676Z,96515.03
2019-01-06T07:41:20.132Z,96524.22
2019-01-06T07:44:34.516Z,96526.78
2019-01-06T07:47:38.649Z,96532.27
2019-01-06T07:50:47.841Z,96531.45
2019-01-06T07:53:49.389Z,96530.52
2019-01-06T07:56:58.437Z,96538.67
2019-01-06T08:00:14.973Z,96525.71
2019-01-06T08:03:36.666Z,96548.82
2019-01-06T08:06:45.681Z,96548.82
2019-01-06T08:09:54.140Z,96546.72
2019-01-06T08:13:02.864Z,96549.28
2019-01-06T08:16:12.098Z,96556.09
2019-01-06T08:19:20.819Z,96548.50
2019-01-06T08:22:30.545Z,96558.94
2019-01-06T08:25:39.282Z,96558.05
2019-01-06T08:28:48.727Z,96558.16
2019-01-06T08:31:58.230Z,96562.67
2019-01-06T08:35:06.966Z,96557.02
2019-01-06T08:38:15.689Z,96556.83
2019-01-06T08:41:24.587Z,96572.25
2019-01-06T08:44:33.289Z,96567.91
2019-01-06T08:47:42.622Z,96573.89
2019-01-06T08:51:03.135Z,96575.95
2019-01-06T08:54:11.850Z,96584.47
2019-01-06T08:57:20.530Z,96580.20
2019-01-06T09:00:29.371Z,96580.55
2019-01-06T09:03:37.868Z,96588.22
2019-01-06T09:06:46.646Z,96593.91
2019-01-06T09:09:55.452Z,96589.17
2019-01-06T09:13:04.515Z,96597.66
2019-01-06T09:16:13.045Z,96591.59
2019-01-06T09:19:22.010Z,96601.11
2019-01-06T09:22:30.643Z,96608.63
2019-01-06T09:25:41.203Z,96605.42
2019-01-06T09:28:50.561Z,96603.28
2019-01-06T09:32:02.503Z,96612.16
2019-01-06T09:35:11.746Z,96619.70
2019-01-06T09:38:21.665Z,96617.28
2019-01-06T09:41:30.562Z,96620.06
2019-01-06T09:44:32.710Z,96613.58
2019-01-06T09:48:00.476Z,96625.59
2019-01-06T09:51:09.692Z,96625.59
2019-01-06T09:54:18.531Z,96624.30
2019-01-06T09:57:27.212Z,96621.23
2019-01-06T10:00:34.105Z,96624.98
2019-01-06T10:03:42.796Z,96629.44
2019-01-06T10:06:51.570Z,96627.58
2019-01-06T10:10:01.227Z,96627.12
2019-01-06T10:13:09.937Z,96628.01
2019-01-06T10:16:19.296Z,96632.00
2019-01-06T10:19:27.768Z,96631.39
2019-01-06T10:22:36.545Z,96632.92
2019-01-06T10:25:45.492Z,96640.37
2019-01-06T10:28:54.185Z,96630.32
2019-01-06T10:32:02.887Z,96639.02
2019-01-06T10:35:11.572Z,96640.13
2019-01-06T10:38:20.270Z,96634.45
2019-01-06T10:41:28.953Z,96640.48
2019-01-06T10:44:37.971Z,96634.67
2019-01-06T10:47:47.457Z,96633.53
2019-01-06T10:50:55.999Z,96638.27
2019-01-06T10:54:00.998Z,96643.19
2019-01-06T10:57:09.833Z,96633.03
2019-01-06T11:00:18.670Z,96625.19
2019-01-06T11:03:28.171Z,96625.19
2019-01-06T11:06:37.130Z,96618.92
2019-01-06T11:09:46.851Z,96624.52
2019-01-06T11:12:58.960Z,96622.55
2019-01-06T11:16:01.245Z,96632.66
2019-01-06T11:19:10.031Z,96632.31
2019-01-06T11:22:19.270Z,96636.16
2019-01-06T11:25:28.032Z,96632.42
2019-01-06T11:28:37.055Z,96636.70
2019-01-06T11:31:46.268Z,96640.94
2019-01-06T11:34:55.286Z,96645.39
2019-01-06T11:38:05.357Z,96640.41
2019-01-06T11:41:14.555Z,96649.45
2019-01-06T11:44:44.800Z,96647.92
2019-01-06T11:47:53.553Z,96647.92
2019-01-06T11:51:03.572Z,96645.36
2019-01-06T11:54:13.367Z,96645.36
2019-01-06T11:57:22.467Z,96651.13
2019-01-06T12:00:31.598Z,96647.64
2019-01-06T12:03:41.797Z,96659.04
2019-01-06T12:06:50.614Z,96652.27
2019-01-06T12:09:59.537Z,96649.59
2019-01-06T12:13:07.969Z,96653.59
2019-01-06T12:16:16.771Z,96653.59
2019-01-06T12:19:33.564Z,96655.91
2019-01-06T12:22:35.632Z,96660.02
2019-01-06T12:25:44.338Z,96658.02
2019-01-06T12:28:53.023Z,96664.03
2019-01-06T12:32:01.498Z,96661.72
2019-01-06T12:35:10.694Z,96661.36
2019-01-06T12:38:38.592Z,96658.05
2019-01-06T12:42:06.268Z,96652.27
2019-01-06T12:45:14.747Z,96652.27
2019-01-06T12:48:17.794Z,96661.90
2019-01-06T12:51:26.937Z,96659.19
2019-01-06T12:54:35.442Z,96659.19
2019-01-06T12:57:44.693Z,96667.78
2019-01-06T13:00:54.391Z,96664.28
2019-01-06T13:04:03.247Z,96670.70
2019-01-06T13:07:13.601Z,96676.61
2019-01-06T13:10:23.666Z,96681.36
2019-01-06T13:13:36.829Z,96674.91
2019-01-06T13:16:43.214Z,96675.83
2019-01-06T13:19:52.242Z,96676.14
2019-01-06T13:23:01.054Z,96680.35
2019-01-06T13:26:09.602Z,96681.05
2019-01-06T13:29:18.648Z,96693.27
2019-01-06T13:32:27.544Z,96694.78
2019-01-06T13:35:36.265Z,96694.78
2019-01-06T13:38:45.601Z,96703.73
2019-01-06T13:41:55.395Z,96704.14
2019-01-06T13:45:05.590Z,96704.37
2019-01-06T13:48:14.133Z,96703.84
2019-01-06T13:51:22.594Z,96716.70
2019-01-06T13:54:31.743Z,96713.66
2019-01-06T13:57:40.910Z,96721.45
2019-01-06T14:00:49.350Z,96717.91
2019-01-06T14:03:58.080Z,96717.86
2019-01-06T14:07:06.562Z,96714.91
2019-01-06T14:10:16.151Z,96709.03
2019-01-06T14:13:43.891Z,96723.79
2019-01-06T14:16:55.894Z,96723.79
2019-01-06T14:20:04.349Z,96726.17
2019-01-06T14:23:13.040Z,96725.20
2019-01-06T14:26:21.560Z,96731.40
2019-01-06T14:29:21.855Z,96734.78
2019-01-06T14:32:30.622Z,96734.62
2019-01-06T14:35:40.136Z,96734.20
2019-01-06T14:38:48.605Z,96739.84
2019-01-06T14:41:57.063Z,96739.94
2019-01-06T14:45:05.802Z,96745.69
2019-01-06T14:48:33.536Z,96750.31
2019-01-06T14:51:42.897Z,96750.31
2019-01-06T14:54:52.053Z,96751.28
2019-01-06T14:58:01.011Z,96763.49
2019-01-06T15:01:10.073Z,96761.52
2019-01-06T15:04:19.013Z,96755.52
2019-01-06T15:07:27.482Z,96760.09
2019-01-06T15:10:35.958Z,96761.37
2019-01-06T15:13:44.673Z,96754.95
2019-01-06T15:16:53.449Z,96759.72
2019-01-06T15:20:02.104Z,96761.95
2019-01-06T15:23:03.165Z,96773.66
2019-01-06T15:26:11.600Z,96767.50
2019-01-06T15:29:21.780Z,96774.47
2019-01-06T15:32:31.417Z,96774.47
2019-01-06T15:35:40.649Z,96773.55
2019-01-06T15:38:49.503Z,96770.14
2019-01-06T15:41:58.196Z,96775.98
2019-01-06T15:48:16.276Z,96766.41
2019-01-06T15:51:25.140Z,96773.19
2019-01-06T15:54:33.892Z,96767.42
2019-01-06T15:57:42.612Z,96770.60
2019-01-06T16:00:52.052Z,96760.75
2019-01-06T16:04:00.929Z,96760.49
2019-01-06T16:07:09.868Z,96763.98
2019-01-06T16:10:18.627Z,96766.86
2019-01-06T16:13:27.999Z,96769.42
2019-01-06T16:16:36.702Z,96770.40
2019-01-06T16:19:45.185Z,96781.53
2019-01-06T16:22:53.915Z,96773.98
2019-01-06T16:26:02.701Z,96777.02
2019-01-06T16:32:41.027Z,96785.23
2019-01-06T16:35:49.928Z,96784.66
2019-01-06T16:38:56.853Z,96775.33
2019-01-06T16:42:06.029Z,96788.61
2019-01-06T16:45:14.916Z,96777.12
2019-01-06T16:48:25.263Z,96778.92
2019-01-06T16:51:50.840Z,96789.30
2019-01-06T16:55:18.517Z,96778.73
2019-01-06T16:58:27.251Z,96778.73
2019-01-06T17:01:36.240Z,96791.55
2019-01-06T17:04:44.749Z,96795.81
2019-01-06T17:07:53.618Z,96801.59
2019-01-06T17:11:02.369Z,96801.20
2019-01-06T17:14:11.347Z,96798.31
2019-01-06T17:17:19.959Z,96796.98
2019-01-06T17:20:29.175Z,96786.56
2019-01-06T17:23:37.615Z,96788.72
2019-01-06T17:26:46.138Z,96788.00
2019-01-06T17:29:54.854Z,96788.36
2019-01-06T17:33:04.294Z,96793.84
2019-01-06T17:36:13.027Z,96786.45
2019-01-06T17:39:21.742Z,96794.16
2019-01-06T17:42:30.196Z,96785.44
2019-01-06T17:45:39.587Z,96793.84
2019-01-06T17:48:48.585Z,96798.00
2019-01-06T17:51:57.274Z,96779.22
2019-01-06T17:55:06.321Z,96799.91
2019-01-06T17:58:15.480Z,96797.08
2019-01-06T18:01:23.961Z,96803.03
2019-01-06T18:04:54.684Z,96801.44
2019-01-06T18:08:04.934Z,96799.67
2019-01-06T18:11:14.208Z,96804.45
2019-01-06T18:14:22.652Z,96794.07
2019-01-06T18:17:31.455Z,96794.07
2019-01-06T18:21:03.492Z,96810.52
2019-01-06T18:24:12.278Z,96810.52
2019-01-06T18:27:20.998Z,96811.65
2019-01-06T18:30:29.983Z,96804.21
2019-01-06T18:33:29.645Z,96804.67
2019-01-06T18:36:37.128Z,96810.98
2019-01-06T18:39:45.600Z,96818.68
2019-01-06T18:42:54.821Z,96818.98
2019-01-06T18:46:03.551Z,96832.84
2019-01-06T18:49:12.609Z,96837.06
2019-01-06T18:52:22.819Z,96837.31
2019-01-06T18:55:31.760Z,96840.38
2019-01-06T18:58:35.053Z,96841.52
2019-01-06T19:01:44.030Z,96831.35
2019-01-06T19:05:04.512Z,96842.80
2019-01-06T19:08:04.633Z,96842.80
2019-01-06T19:11:13.166Z,96837.56
2019-01-06T19:14:22.136Z,96834.49
2019-01-06T19:17:49.599Z,96831.10
2019-01-06T19:20:58.068Z,96831.10
2019-01-06T19:24:06.848Z,96824.98
2019-01-06T19:27:34.539Z,96832.23
2019-01-06T19:30:43.309Z,96832.23
2019-01-06T19:33:51.773Z,96828.59
2019-01-06T19:37:01.037Z,96835.98
2019-01-06T19:40:09.845Z,96844.30
2019-01-06T19:43:11.532Z,96844.23
2019-01-06T19:46:16.252Z,96849.73
2019-01-06T19:49:24.794Z,96849.57
2019-01-06T19:52:34.488Z,96860.86
2019-01-06T19:55:42.938Z,96854.84
2019-01-06T19:58:51.683Z,96854.84
2019-01-06T20:01:53.406Z,96857.79
2019-01-06T20:05:02.421Z,96845.16
2019-01-06T20:08:11.225Z,96852.76
2019-01-06T20:11:19.974Z,96857.28
2019-01-06T20:14:29.896Z,96860.14
2019-01-06T20:17:38.381Z,96861.32
2019-01-06T20:20:47.692Z,96871.75
2019-01-06T20:24:15.595Z,96854.30
2019-01-06T20:27:17.823Z,96854.30
2019-01-06T20:30:45.658Z,96861.53
2019-01-06T20:33:54.129Z,96853.78
2019-01-06T20:36:56.994Z,96853.78
2019-01-06T20:40:07.133Z,96865.22
2019-01-06T20:43:39.290Z,96860.95
2019-01-06T20:46:48.302Z,96863.61
2019-01-06T20:49:56.996Z,96872.45
2019-01-06T20:53:17.278Z,96863.41
2019-01-06T20:56:25.968Z,96863.41
2019-01-06T20:59:35.154Z,96867.32
2019-01-06T21:03:02.931Z,96874.29
2019-01-06T21:06:11.743Z,96874.29
2019-01-06T21:09:20.368Z,96870.14
2019-01-06T21:12:29.660Z,96878.20
2019-01-06T21:15:38.195Z,96865.11
2019-01-06T21:18:47.481Z,96874.98
2019-01-06T21:22:18.777Z,96873.17
2019-01-06T21:25:52.506Z,96877.67
2019-01-06T21:32:39.197Z,96883.07
2019-01-06T21:36:07.223Z,96887.38
2019-01-06T21:39:16.047Z,96887.38
2019-01-06T21:42:44.401Z,96882.28
2019-01-06T21:45:52.395Z,96899.67
2019-01-06T21:49:01.542Z,96901.68
2019-01-06T21:52:10.530Z,96893.89
2019-01-06T21:55:19.787Z,96899.84
2019-01-06T21:58:28.344Z,96901.13
2019-01-06T22:01:37.190Z,96896.48
2019-01-06T22:04:46.141Z,96908.36
2019-01-06T22:07:54.981Z,96893.92
2019-01-06T22:11:03.926Z,96899.58
2019-01-06T22:14:12.932Z,96894.09
2019-01-06T22:17:21.841Z,96895.56
2019-01-06T22:20:20.181Z,96892.38
2019-01-06T22:23:47.946Z,96892.64
2019-01-06T22:26:56.669Z,96892.64
2019-01-06T22:30:05.726Z,96891.06
2019-01-06T22:33:14.459Z,96900.79
2019-01-06T22:36:20.902Z,96894.09
2019-01-06T22:39:29.613Z,96898.86
2019-01-06T22:42:38.371Z,96898.56
2019-01-06T22:45:47.254Z,96903.00
2019-01-06T22:49:15.220Z,96909.56
2019-01-06T22:52:24.057Z,96906.38
2019-01-06T22:55:33.680Z,96904.80
2019-01-06T22:58:43.334Z,96906.64
2019-01-06T23:02:03.551Z,96903.36
2019-01-06T23:05:05.065Z,96913.25
2019-01-06T23:08:12.315Z,96905.82
2019-01-06T23:11:39.998Z,96910.33
2019-01-06T23:14:48.768Z,96916.73
2019-01-06T23:18:16.460Z,96915.42
2019-01-06T23:21:25.080Z,96915.42
2019-01-06T23:24:33.550Z,96919.17
2019-01-06T23:27:42.301Z,96911.58
2019-01-06T23:30:51.081Z,96910.66
2019-01-06T23:33:59.797Z,96910.46
2019-01-06T23:37:08.585Z,96916.61
2019-01-06T23:40:17.502Z,96920.84
2019-01-06T23:43:45.200Z,96914.14
2019-01-06T23:46:53.929Z,96914.14
2019-01-06T23:50:21.921Z,96907.34
2019-01-06T23:53:49.851Z,96917.27
2019-01-06T23:57:17.774Z,96909.57
